Home > Products > Valid Products > TAF

000
FTUS45 KABQ 022300
TAFROW
TAF
KROW 022325Z 0300/0324 05008KT P6SM FEW090
     FM030300 16010KT P6SM FEW250
     FM031700 16010KT P6SM FEW100 SCT250=



000
FTUS45 KABQ 022300
TAFLVS
TAF
KLVS 022325Z 0300/0324 17012G22KT P6SM SCT080
     FM030200 15007KT P6SM FEW130
     FM031200 20010KT P6SM SKC
     FM032000 21015G25KT P6SM FEW080=



000
FTUS45 KABQ 022300
TAFGUP
TAF
KGUP 022325Z 0300/0324 26012G18KT P6SM FEW090 SCT250
     FM030200 23007KT P6SM SKC
     FM030500 VRB06KT P6SM SKC
     FM031900 24012G20KT P6SM FEW090=



000
FTUS45 KABQ 022300
TAFTCC
TAF
KTCC 022325Z 0300/0324 14008KT P6SM SKC
     FM030400 22012KT P6SM SKC
     FM031400 22015G25KT P6SM SKC
     FM032000 19015G22KT P6SM FEW090=



000
FTUS45 KABQ 022300
TAFSAF
TAF
KSAF 022325Z 0300/0324 25010KT P6SM FEW090
     FM030200 16007KT P6SM SKC
     FM031200 03006KT P6SM SKC
     FM031700 23008KT P6SM FEW080
     FM032000 21012KT P6SM FEW090=



000
FTUS45 KABQ 022300
TAFABQ
TAF
KABQ 022325Z 0300/0324 25008KT P6SM FEW090 SCT250
     FM030200 21006KT P6SM SKC
     FM031100 14006KT P6SM SKC
     FM031900 23012KT P6SM FEW090=



000
FTUS45 KABQ 022300
TAFFMN
TAF
KFMN 022325Z 0300/0324 27010KT P6SM SCT250
     FM030200 VRB06KT P6SM SKC
     FM030700 08007KT P6SM SKC
     FM031600 VRB06KT P6SM SKC
     FM032000 25008KT P6SM FEW090=



000
FTUS45 KABQ 021900 AAA
TAFTCC
TAF AMD
KTCC 021944Z 0220/0318 07010KT P6SM SKC
      TEMPO 0220/0222 07010G20KT
     FM022200 12008KT P6SM SKC
     FM030400 22010KT P6SM FEW250
     FM031400 22014G24KT P6SM FEW250=



000
FTUS45 KABQ 021700
TAFGUP
TAF
KGUP 021734Z 0218/0318 24010KT P6SM SCT250
      TEMPO 0221/0301 24010G19KT
     FM030100 23009KT P6SM SKC
     FM030400 VRB04KT P6SM SKC=



000
FTUS45 KABQ 021700
TAFABQ
TAF
KABQ 021734Z 0218/0318 VRB06KT P6SM FEW250
     FM022000 23007KT P6SM FEW250
     FM030200 11006KT P6SM SKC=



000
FTUS45 KABQ 021700
TAFLVS
TAF
KLVS 021734Z 0218/0318 16011KT P6SM FEW090
      TEMPO 0221/0301 16012G22KT
     FM030300 20007KT P6SM FEW250
     FM031700 20010G18KT P6SM FEW250=



000
FTUS45 KABQ 021700
TAFROW
TAF
KROW 021734Z 0218/0318 03008KT P6SM SKC
     FM022230 16009KT P6SM SKC=



000
FTUS45 KABQ 021700
TAFTCC
TAF
KTCC 021734Z 0218/0318 07010KT P6SM FEW029
     FM022200 12008KT P6SM SKC
     FM030400 22010KT P6SM FEW250
     FM031400 22014G24KT P6SM FEW250=



000
FTUS45 KABQ 021700
TAFFMN
TAF
KFMN 021734Z 0218/0318 25008KT P6SM SCT250
     FM030700 08006KT P6SM SKC=



000
FTUS45 KABQ 021700
TAFSAF
TAF
KSAF 021734Z 0218/0318 35007KT P6SM FEW090
     FM022000 25010KT 6SM FU FEW030 SCT090
     FM030200 10006KT P6SM SKC
     FM031100 01008KT P6SM SKC=



000
FTUS45 KABQ 021600 AAA
TAFTCC
TAF AMD
KTCC 021624Z 0216/0312 08008KT P6SM SCT025
      TEMPO 0216/0218 BKN025
     FM022000 12007KT P6SM SKC
     FM030000 18010KT P6SM FEW100=



000
FTUS45 KABQ 021100
TAFLVS
TAF
KLVS 021120Z 0212/0312 02007KT P6SM SKC
     FM021800 18012G18KT P6SM SKC
     FM030300 20007KT P6SM FEW100=



000
FTUS45 KABQ 021100
TAFABQ
TAF
KABQ 021120Z 0212/0312 VRB03KT P6SM SKC
     FM022000 22007KT P6SM SKC
     FM030200 12006KT P6SM FEW100=



000
FTUS45 KABQ 021100
TAFSAF
TAF
KSAF 021120Z 0212/0312 01007KT P6SM SKC
     FM022000 24010KT P6SM SKC
     FM030200 10006KT P6SM FEW100=



000
FTUS45 KABQ 021100
TAFFMN
TAF
KFMN 021120Z 0212/0312 08007KT P6SM SKC
     FM022000 26007KT P6SM SKC
     FM030700 07006KT P6SM SKC=



000
FTUS45 KABQ 021100
TAFGUP
TAF
KGUP 021120Z 0212/0312 VRB03KT P6SM SKC
     FM021900 23010G17KT P6SM SKC
     FM030200 VRB03KT P6SM SKC=



000
FTUS45 KABQ 021100
TAFTCC
TAF
KTCC 021120Z 0212/0312 03010KT P6SM FEW006
      TEMPO 0212/0216 4SM BR BKN006
     FM022000 12007KT P6SM SKC
     FM030000 18010KT P6SM FEW100=



000
FTUS45 KABQ 021100
TAFROW
TAF
KROW 021120Z 0212/0312 01008KT P6SM SKC
     FM022100 05006KT P6SM SKC
     FM030000 15009KT P6SM SKC=



000
FTUS45 KABQ 020500
TAFGUP
TAF
KGUP 020539Z 0206/0306 VRB06KT P6SM SKC
     FM021900 23012G18KT P6SM FEW090
     FM030200 VRB06KT P6SM SKC=



000
FTUS45 KABQ 020500
TAFSAF
TAF
KSAF 020539Z 0206/0306 01007KT P6SM SKC
     FM021700 20007KT P6SM SKC
     FM022000 24010KT P6SM FEW090
     FM030200 10006KT P6SM SKC=



000
FTUS45 KABQ 020500
TAFLVS
TAF
KLVS 020539Z 0206/0306 03007KT P6SM SKC
     FM021600 15008KT P6SM SKC
     FM022000 20013KT P6SM SCT080
     FM030200 18007KT P6SM SKC=



000
FTUS45 KABQ 020500
TAFROW
TAF
KROW 020539Z 0206/0306 26006KT P6SM SKC
     FM020900 36006KT P6SM SKC
     FM021300 04006KT P6SM FEW050
     FM021900 15007KT P6SM FEW090=



000
FTUS45 KABQ 020500
TAFTCC
TAF
KTCC 020539Z 0206/0306 35007KT P6SM SCT050
     FM021000 02008KT P6SM SCT015
     FM021600 06006KT P6SM FEW040
     FM022000 17007KT P6SM FEW090=



000
FTUS45 KABQ 020500
TAFFMN
TAF
KFMN 020539Z 0206/0306 08006KT P6SM SKC
     FM021600 VRB06KT P6SM SKC
     FM022000 25008KT P6SM SKC
     FM030200 VRB06KT P6SM SKC=



000
FTUS45 KABQ 020500
TAFABQ
TAF
KABQ 020539Z 0206/0306 36006KT P6SM SKC
      TEMPO 0206/0208 12006KT
     FM021500 VRB06KT P6SM SKC
     FM021900 22008KT P6SM FEW090
     FM030200 12006KT P6SM SKC=



000
FTUS45 KABQ 012300
TAFSAF
TAF
KSAF 012320Z 0200/0224 25012G18KT P6SM FEW090
     FM020200 01007KT P6SM SKC
     FM021700 20007KT P6SM SKC
     FM022000 24010KT P6SM FEW090=



000
FTUS45 KABQ 012300
TAFROW
TAF
KROW 012320Z 0200/0224 12012KT P6SM SKC
     FM020200 16006KT P6SM SKC
     FM020800 36006KT P6SM SKC
     FM021300 04006KT P6SM FEW050
     FM021800 15007KT P6SM FEW090=



000
FTUS45 KABQ 012300
TAFGUP
TAF
KGUP 012320Z 0200/0224 26012G18KT P6SM SKC
     FM020130 23008KT P6SM FEW250
     FM020500 VRB06KT P6SM FEW250
     FM021900 23012G20KT P6SM FEW090=



000
FTUS45 KABQ 012300
TAFTCC
TAF
KTCC 012320Z 0200/0224 18008KT P6SM SKC
     FM020200 26008KT P6SM SKC
     FM020600 35007KT P6SM SCT050
     FM021200 02008KT P6SM SCT015
     FM021600 06006KT P6SM FEW060
     FM021900 17007KT P6SM FEW090=



000
FTUS45 KABQ 012300
TAFFMN
TAF
KFMN 012320Z 0200/0224 28012G20KT P6SM SKC
     FM020130 33008KT P6SM SKC
     FM020800 08006KT P6SM SKC
     FM021600 VRB06KT P6SM SKC
     FM022000 25008KT P6SM SKC=



000
FTUS45 KABQ 012300
TAFLVS
TAF
KLVS 012320Z 0200/0224 22012G20KT P6SM FEW080
     FM020200 28008KT P6SM SKC
     FM020500 03007KT P6SM SKC
     FM021500 15008KT P6SM SKC
     FM021900 21013KT P6SM FEW080=



000
FTUS45 KABQ 012300
TAFABQ
TAF
KABQ 012320Z 0200/0224 26008KT P6SM FEW090
     FM020200 32006KT P6SM SKC
     FM020700 36006KT P6SM SKC
     FM021500 VRB06KT P6SM FEW250
     FM021900 22008KT P6SM FEW090=



000
FTUS45 KABQ 012000 AAA
TAFLVS
TAF AMD
KLVS 012005Z 0120/0218 19010G19KT P6SM FEW090
     FM012100 22014G24KT P6SM FEW090
     FM020200 28008KT P6SM SKC
     FM020700 36006KT P6SM SKC
     FM021700 16009KT P6SM SKC=



000
FTUS45 KABQ 011700
TAFABQ
TAF
KABQ 011737Z 0118/0218 20006KT P6SM SKC
     FM012000 26010KT P6SM SKC
     FM020200 32006KT P6SM SKC
     FM020700 36005KT P6SM FEW250=



000
FTUS45 KABQ 011700
TAFLVS
TAF
KLVS 011737Z 0118/0218 22011KT P6SM SKC
     FM011900 23014G24KT P6SM FEW090
     FM020200 28008KT P6SM SKC
     FM020700 36006KT P6SM SKC
     FM021700 16009KT P6SM SKC=



000
FTUS45 KABQ 011700
TAFGUP
TAF
KGUP 011737Z 0118/0218 26011KT P6SM SKC
     FM012000 26011G21KT P6SM SKC
     FM020200 23009KT P6SM SCT250=



000
FTUS45 KABQ 011700
TAFSAF
TAF
KSAF 011737Z 0118/0218 25011KT P6SM FEW100
      TEMPO 0120/0124 25011G21KT
     FM020200 01007KT P6SM SKC
     FM021700 20007KT P6SM SKC=



000
FTUS45 KABQ 011700
TAFTCC
TAF
KTCC 011737Z 0118/0218 22011KT P6SM SKC
      TEMPO 0121/0201 22011G21KT
     FM020200 26008KT P6SM SKC
     FM020900 35007KT P6SM SCT090
     FM021200 02008KT P6SM SCT015=



000
FTUS45 KABQ 011700
TAFFMN
TAF
KFMN 011737Z 0118/0218 26008KT P6SM SKC
     FM012000 28012G22KT P6SM SKC
     FM020100 33009KT P6SM SKC
     FM020800 08006KT P6SM SKC=



000
FTUS45 KABQ 011700
TAFROW
TAF
KROW 011737Z 0118/0218 VRB06KT P6SM SKC
     FM020000 22007KT P6SM SKC
     FM021200 36006KT P6SM SKC=



000
FTUS45 KABQ 011100
TAFABQ
TAF
KABQ 011124Z 0112/0212 12005KT P6SM SKC
     FM012100 26008KT P6SM SKC
     FM020200 VRB04KT P6SM FEW100=



000
FTUS45 KABQ 011100
TAFROW
TAF
KROW 011124Z 0112/0212 21006KT P6SM SKC
     FM011700 36007KT P6SM SKC
     FM012100 20007KT P6SM SKC
     FM020200 VRB05KT P6SM SKC=



000
FTUS45 KABQ 011100
TAFFMN
TAF
KFMN 011124Z 0112/0212 08005KT P6SM SKC
     FM012000 28010G16KT P6SM SKC
     FM020200 32006KT P6SM SKC
     FM020800 07006KT P6SM SKC=



000
FTUS45 KABQ 011100
TAFTCC
TAF
KTCC 011124Z 0112/0212 06009KT P6SM SKC
     FM011900 24007KT P6SM SKC
     FM012200 23011G17KT P6SM SKC
     FM020200 26008KT P6SM SKC=



000
FTUS45 KABQ 011100
TAFSAF
TAF
KSAF 011124Z 0112/0212 35007KT P6SM SKC
     FM012000 27010G16KT P6SM FEW100
     FM020200 01006KT P6SM SKC=



000
FTUS45 KABQ 011100
TAFLVS
TAF
KLVS 011124Z 0112/0212 27009KT P6SM SKC
     FM011700 25010G20KT P6SM FEW090
      TEMPO 0121/0201 24015G25KT
     FM020200 28008KT P6SM SKC=



000
FTUS45 KABQ 011100
TAFGUP
TAF
KGUP 011124Z 0112/0212 VRB04KT P6SM SKC
     FM012000 26008G16KT P6SM SKC
     FM020200 VRB03KT P6SM SKC=



000
FTUS45 KABQ 010500
TAFGUP
TAF
KGUP 010520Z 0106/0206 25010KT P6SM SKC
     FM011900 26008G16KT P6SM FEW090
     FM020200 VRB03KT P6SM SKC=



000
FTUS45 KABQ 010500
TAFLVS
TAF
KLVS 010520Z 0106/0206 24008KT P6SM SKC
     FM011700 25010G20KT P6SM FEW090
      TEMPO 0121/0201 24015G25KT
     FM020200 25008KT P6SM SKC=



000
FTUS45 KABQ 010500
TAFFMN
TAF
KFMN 010520Z 0106/0206 26007KT P6SM SKC
     FM011000 09007KT P6SM SKC
     FM012000 28010G16KT P6SM FEW090
     FM020200 VRB05KT P6SM SKC=



000
FTUS45 KABQ 010500
TAFROW
TAF
KROW 010520Z 0106/0206 21009KT P6SM SKC
     FM012000 18011KT P6SM FEW100
     FM020200 VRB05KT P6SM SKC=



000
FTUS45 KABQ 010500
TAFSAF
TAF
KSAF 010520Z 0106/0206 26007KT P6SM SKC
     FM011100 35008KT P6SM SKC
     FM012000 27011G17KT P6SM FEW100
     FM020200 VRB05KT P6SM SKC=



000
FTUS45 KABQ 010500
TAFABQ
TAF
KABQ 010520Z 0106/0206 26010KT P6SM SKC
     FM012100 28010KT P6SM FEW100
     FM020200 VRB05KT P6SM SKC=



000
FTUS45 KABQ 010500
TAFTCC
TAF
KTCC 010520Z 0106/0206 24009KT P6SM SKC
     FM011900 24012G22KT P6SM FEW090
     FM020200 24009KT P6SM SKC=



000
FTUS45 KABQ 312300
TAFLVS
TAF
KLVS 312327Z 0100/0124 25015G27KT P6SM FEW110
     FM010200 25008KT P6SM SKC
     FM011700 25011G21KT P6SM FEW090=



000
FTUS45 KABQ 312300
TAFABQ
TAF
KABQ 312327Z 0100/0124 26012G22KT P6SM FEW100
     FM010200 25007KT P6SM SKC
     FM012100 28010KT P6SM FEW100=



000
FTUS45 KABQ 312300
TAFFMN
TAF
KFMN 312327Z 0100/0124 27016G26KT P6SM FEW110
     FM010200 26008KT P6SM SKC
     FM011000 09007KT P6SM SKC
     FM012000 28010G16KT P6SM FEW090=



000
FTUS45 KABQ 312300
TAFSAF
TAF
KSAF 312327Z 0100/0124 25016G26KT P6SM FEW110
     FM010200 26007KT P6SM SKC
     FM011100 35008KT P6SM SKC
     FM012000 27011G17KT P6SM FEW100=



000
FTUS45 KABQ 312300
TAFGUP
TAF
KGUP 312327Z 0100/0124 25017G27KT P6SM FEW090
     FM010200 23007KT P6SM SKC
     FM011900 26008G16KT P6SM FEW090=



000
FTUS45 KABQ 312300
TAFTCC
TAF
KTCC 312327Z 0100/0124 25021G32KT P6SM SKC
     FM010200 23009KT P6SM SKC
     FM011900 24012G22KT P6SM FEW090=



000
FTUS45 KABQ 312300
TAFROW
TAF
KROW 312327Z 0100/0124 25009G15KT P6SM FEW100
     FM010200 21009KT P6SM SKC
     FM012000 24011KT P6SM FEW100=



000
FTUS45 KABQ 311900 AAA
TAFFMN
TAF AMD
KFMN 311905Z 3119/0118 28018G30KT P6SM FEW200
     FM010200 24010G18KT P6SM SKC
     FM010600 03008KT P6SM SKC
     FM011100 09007KT P6SM SKC=



000
FTUS45 KABQ 311700 RRA
TAFTCC
TAF
KTCC 311741Z 3118/0118 26021G32KT P6SM SKC
     FM010200 26010G18KT P6SM SKC
     FM010500 23009KT P6SM SKC=



000
FTUS45 KABQ 311700 RRA
TAFLVS
TAF
KLVS 311741Z 3118/0118 25025G35KT P6SM FEW110
     FM010200 25010G20KT P6SM SKC
     FM010400 25010KT P6SM SKC
     FM011200 30009KT P6SM SKC=



000
FTUS45 KABQ 311700 RRA
TAFFMN
TAF
KFMN 311741Z 3118/0118 26010G18KT P6SM FEW200
     FM312000 27018G30KT P6SM FEW200
     FM010200 24010G18KT P6SM SKC
     FM010600 03008KT P6SM SKC
     FM011100 09007KT P6SM SKC=



000
FTUS45 KABQ 311700 RRA
TAFROW
TAF
KROW 311741Z 3118/0118 21010KT P6SM SKC
     FM312000 21012G22KT P6SM SKC
     FM010900 21009KT P6SM SKC=



000
FTUS45 KABQ 311700 RRA
TAFGUP
TAF
KGUP 311741Z 3118/0118 24015G25KT P6SM SKC
     FM312100 25019G30KT P6SM SKC
     FM010200 21010G18KT P6SM SKC
     FM010700 21005KT P6SM SKC=



000
FTUS45 KABQ 311700 RRA
TAFABQ
TAF
KABQ 311741Z 3118/0118 26015G28KT P6SM FEW110
     FM010200 27010KT P6SM SKC
     FM010500 24005KT P6SM SKC=



000
FTUS45 KABQ 311700 RRA
TAFSAF
TAF
KSAF 311741Z 3118/0118 25018G30KT P6SM FEW110
     FM010200 27012G20KT P6SM SKC
     FM010500 29007KT P6SM SKC
     FM010900 35008KT P6SM SKC=



000
FTUS45 KABQ 311300 AAA
TAFTCC
TAF AMD
KTCC 311315Z 3113/0112 21015G25KT P6SM SKC
     FM311500 24020G30KT P6SM SKC
     FM010200 24010KT P6SM SKC=



000
FTUS45 KABQ 311100
TAFROW
TAF
KROW 311120Z 3112/0112 21005KT P6SM SKC
     FM311600 21010G20KT P6SM SKC
     FM010100 21010KT P6SM SKC=



000
FTUS45 KABQ 311100
TAFLVS
TAF
KLVS 311120Z 3112/0112 18010KT P6SM SKC
     FM311500 24015G25KT P6SM SKC
     FM311700 27025G35KT P6SM SKC
     FM010200 24010KT P6SM SKC=



000
FTUS45 KABQ 311100
TAFFMN
TAF
KFMN 311120Z 3112/0112 09005KT P6SM SKC
     FM311600 24010G20KT P6SM SKC
     FM311800 27015G25KT P6SM SKC
     FM312200 27020G30KT P6SM SKC
     FM010300 24010G20KT P6SM SKC
     FM010600 24010KT P6SM SKC=



000
FTUS45 KABQ 311100
TAFGUP
TAF
KGUP 311120Z 3112/0112 18005KT P6SM SKC
     FM311500 24015G25KT P6SM SKC
     FM010200 21010G20KT P6SM SKC
     FM010700 21005KT P6SM SKC=



000
FTUS45 KABQ 311100
TAFABQ
TAF
KABQ 311120Z 3112/0112 18010KT P6SM FEW100
     FM311600 27010G20KT P6SM FEW100
     FM010300 24005KT P6SM SKC=



000
FTUS45 KABQ 311100
TAFSAF
TAF
KSAF 311120Z 3112/0112 27005KT P6SM SKC
     FM311600 27015G25KT P6SM FEW250
     FM010300 30005KT P6SM FEW250=



000
FTUS45 KABQ 311100
TAFTCC
TAF
KTCC 311120Z 3112/0112 18015KT P6SM SKC
     FM311500 24020G30KT P6SM SKC
     FM010200 24010KT P6SM SKC=



000
FTUS45 KABQ 310500
TAFTCC
TAF
KTCC 310520Z 3106/0106 21011KT P6SM FEW110
     FM311600 24015G25KT P6SM FEW110
     FM311900 24021G31KT P6SM SCT110
     FM010200 23011KT P6SM FEW110=



000
FTUS45 KABQ 310500
TAFFMN
TAF
KFMN 310520Z 3106/0106 VRB06KT P6SM SCT250
     FM311000 09007KT P6SM FEW250
     FM311900 25010G18KT P6SM SKC
     FM312200 25015G25KT P6SM FEW110
     FM010200 VRB06KT P6SM SKC=



000
FTUS45 KABQ 310500
TAFSAF
TAF
KSAF 310520Z 3106/0106 VRB06KT P6SM FEW250
     FM311800 26012G22KT P6SM FEW100
     FM010200 VRB05KT P6SM SKC=



000
FTUS45 KABQ 310500
TAFABQ
TAF
KABQ 310520Z 3106/0106 16007KT P6SM FEW250
     FM311800 25010G18KT P6SM FEW100
     FM010200 VRB06KT P6SM SKC=



000
FTUS45 KABQ 310500
TAFGUP
TAF
KGUP 310520Z 3106/0106 22006KT P6SM FEW250
     FM311600 23012G22KT P6SM SKC
     FM311900 23018G30KT P6SM SCT090
     FM010200 23008KT P6SM SKC=



000
FTUS45 KABQ 310500
TAFROW
TAF
KROW 310520Z 3106/0106 19011KT P6SM FEW110
     FM312000 21010G18KT P6SM SCT110
     FM010300 18010KT P6SM FEW110=



000
FTUS45 KABQ 310500
TAFLVS
TAF
KLVS 310520Z 3106/0106 21011KT P6SM FEW250
     FM311600 23012G22KT P6SM FEW100
     FM311900 25018G30KT P6SM SCT100
     FM010200 24010KT P6SM FEW100=



    US Dept of Commerce
    National Oceanic and Atmospheric Administration
    National Weather Service
    1325 East West Highway
    Silver Spring, MD 20910
    Page Author: NWS Internet Services Team
Disclaimer
Information Quality
Credits
Glossary
Privacy Policy
Freedom of Information Act (FOIA)
About Us
Career Opportunities